createdAt,value
2018-06-01T00:00:31.921Z,996.79
2018-06-01T00:01:42.092Z,996.79
2018-06-01T00:02:51.914Z,996.82
2018-06-01T00:04:02.025Z,996.82
2018-06-01T00:05:12.132Z,996.82
2018-06-01T00:06:22.228Z,996.8
2018-06-01T00:07:32.306Z,996.85
2018-06-01T00:08:42.376Z,996.83
2018-06-01T00:09:52.481Z,996.86
2018-06-01T00:11:02.556Z,996.82
2018-06-01T00:12:12.638Z,996.85
2018-06-01T00:13:22.468Z,996.85
2018-06-01T00:14:32.272Z,996.88
2018-06-01T00:15:42.089Z,996.87
2018-06-01T00:16:51.964Z,996.85
2018-06-01T00:18:02.040Z,996.87
2018-06-01T00:19:12.119Z,996.85
2018-06-01T00:20:22.220Z,996.88
2018-06-01T00:21:32.311Z,996.85
2018-06-01T00:22:42.387Z,996.83
2018-06-01T00:23:52.470Z,996.87
2018-06-01T00:25:02.552Z,996.84
2018-06-01T00:26:12.505Z,996.86
2018-06-01T00:27:22.585Z,996.88
2018-06-01T00:28:32.398Z,996.86
2018-06-01T00:29:42.478Z,996.87
2018-06-01T00:30:52.614Z,996.81
2018-06-01T00:32:02.437Z,996.81
2018-06-01T00:33:12.252Z,996.79
2018-06-01T00:34:22.324Z,996.76
2018-06-01T00:35:32.419Z,996.76
2018-06-01T00:36:42.536Z,996.76
2018-06-01T00:37:52.605Z,996.78
2018-06-01T00:39:02.430Z,996.75
2018-06-01T00:40:12.509Z,996.75
2018-06-01T00:41:22.605Z,996.75
2018-06-01T00:42:32.703Z,996.83
2018-06-01T00:43:42.792Z,996.81
2018-06-01T00:44:52.892Z,996.84
2018-06-01T00:46:02.739Z,996.84
2018-06-01T00:47:12.820Z,996.8
2018-06-01T00:48:22.681Z,996.81
2018-06-01T00:49:32.513Z,996.8
2018-06-01T00:50:42.059Z,996.81
2018-06-01T00:51:52.205Z,996.81
2018-06-01T00:53:02.346Z,996.8
2018-06-01T00:54:12.433Z,996.74
2018-06-01T00:55:22.518Z,996.78
2018-06-01T00:56:32.604Z,996.82
2018-06-01T00:57:42.432Z,996.78
2018-06-01T00:58:52.521Z,996.78
2018-06-01T01:00:02.608Z,996.75
2018-06-01T01:01:12.682Z,996.77
2018-06-01T01:02:22.769Z,996.74
2018-06-01T01:03:32.897Z,996.73
2018-06-01T01:04:42.992Z,996.77
2018-06-01T01:05:52.796Z,996.72
2018-06-01T01:07:02.886Z,996.68
2018-06-01T01:08:12.700Z,996.63
2018-06-01T01:09:22.796Z,996.66
2018-06-01T01:10:32.884Z,996.66
2018-06-01T01:11:42.968Z,996.65
2018-06-01T01:12:52.791Z,996.67
2018-06-01T01:14:02.872Z,996.7
2018-06-01T01:15:13.032Z,996.61
2018-06-01T01:16:23.115Z,996.67
2018-06-01T01:17:33.215Z,996.65
2018-06-01T01:18:43.304Z,996.66
2018-06-01T01:19:53.394Z,996.69
2018-06-01T01:21:03.474Z,996.68
2018-06-01T01:22:13.558Z,996.67
2018-06-01T01:23:23.637Z,996.67
2018-06-01T01:24:33.462Z,996.64
2018-06-01T01:25:43.544Z,996.67
2018-06-01T01:26:53.351Z,996.64
2018-06-01T01:28:03.420Z,996.7
2018-06-01T01:29:13.512Z,996.68
2018-06-01T01:30:23.062Z,996.68
2018-06-01T01:31:32.611Z,996.72
2018-06-01T01:32:42.426Z,996.73
2018-06-01T01:33:52.241Z,996.62
2018-06-01T01:35:02.320Z,996.62
2018-06-01T01:36:11.877Z,996.59
2018-06-01T01:37:21.958Z,996.59
2018-06-01T01:38:32.115Z,996.58
2018-06-01T01:39:41.932Z,996.58
2018-06-01T01:40:52.027Z,996.59
2018-06-01T01:42:01.835Z,996.57
2018-06-01T01:43:11.930Z,996.53
2018-06-01T01:44:22.060Z,996.52
2018-06-01T01:45:32.160Z,996.5
2018-06-01T01:46:42.992Z,996.55
2018-06-01T01:47:53.065Z,996.53
2018-06-01T01:49:03.152Z,996.53
2018-06-01T01:50:12.711Z,996.51
2018-06-01T01:51:22.779Z,996.5
2018-06-01T01:52:32.935Z,996.53
2018-06-01T01:53:42.756Z,996.52
2018-06-01T01:54:52.576Z,996.52
2018-06-01T01:56:02.685Z,996.53
2018-06-01T01:57:12.756Z,996.52
2018-06-01T01:58:22.827Z,996.52
2018-06-01T01:59:32.915Z,996.55
2018-06-01T02:00:42.988Z,996.54
2018-06-01T02:01:53.097Z,996.55
2018-06-01T02:03:03.190Z,996.55
2018-06-01T02:04:13.018Z,996.55
2018-06-01T02:05:23.103Z,996.53
2018-06-01T02:06:33.177Z,996.5
2018-06-01T02:07:43.041Z,996.5
2018-06-01T02:08:52.867Z,996.51
2018-06-01T02:10:02.953Z,996.57
2018-06-01T02:11:13.036Z,996.56
2018-06-01T02:12:23.127Z,996.54
2018-06-01T02:13:33.213Z,996.54
2018-06-01T02:14:43.023Z,996.53
2018-06-01T02:15:53.105Z,996.48
2018-06-01T02:17:03.205Z,996.53
2018-06-01T02:18:13.295Z,996.58
2018-06-01T02:19:23.160Z,996.57
2018-06-01T02:20:33.232Z,996.63
2018-06-01T02:21:43.319Z,996.62
2018-06-01T02:22:53.407Z,996.61
2018-06-01T02:24:03.488Z,996.57
2018-06-01T02:25:13.348Z,996.64
2018-06-01T02:26:23.161Z,996.59
2018-06-01T02:27:32.724Z,996.57
2018-06-01T02:28:42.842Z,996.57
2018-06-01T02:29:52.929Z,996.57
2018-06-01T02:31:03.018Z,996.6
2018-06-01T02:32:12.845Z,996.61
2018-06-01T02:33:22.929Z,996.63
2018-06-01T02:34:33.049Z,996.63
2018-06-01T02:35:43.151Z,996.65
2018-06-01T02:36:52.700Z,996.64
2018-06-01T02:38:02.250Z,996.65
2018-06-01T02:39:12.346Z,996.67
2018-06-01T02:40:22.441Z,996.71
2018-06-01T02:41:32.541Z,996.71
2018-06-01T02:42:42.613Z,996.69
2018-06-01T02:43:52.690Z,996.74
2018-06-01T02:45:02.775Z,996.74
2018-06-01T02:46:12.859Z,996.77
2018-06-01T02:47:22.688Z,996.78
2018-06-01T02:48:32.766Z,996.8
2018-06-01T02:49:42.589Z,996.8
2018-06-01T02:50:52.687Z,996.81
2018-06-01T02:52:02.761Z,996.81
2018-06-01T02:53:12.838Z,996.81
2018-06-01T02:54:22.667Z,996.86
2018-06-01T02:55:32.744Z,996.85
2018-06-01T02:56:42.817Z,996.88
2018-06-01T02:57:52.655Z,996.9
2018-06-01T02:59:02.734Z,996.91
2018-06-01T03:00:12.842Z,996.96
2018-06-01T03:01:22.669Z,997
2018-06-01T03:02:32.259Z,997.01
2018-06-01T03:35:03.203Z,997.33
2018-06-01T03:36:12.996Z,997.34
2018-06-01T03:37:22.534Z,997.32
2018-06-01T03:38:32.614Z,997.31
2018-06-01T03:39:42.674Z,997.34
2018-06-01T03:40:52.807Z,997.31
2018-06-01T03:42:02.610Z,997.3
2018-06-01T03:43:12.684Z,997.27
2018-06-01T03:44:22.502Z,997.28
2018-06-01T03:45:32.563Z,997.26
2018-06-01T03:46:42.155Z,997.25
2018-06-01T03:47:52.224Z,997.32
2018-06-01T03:49:02.301Z,997.37
2018-06-01T03:50:12.371Z,997.33
2018-06-01T03:51:22.193Z,997.33
2018-06-01T03:52:32.328Z,997.33
2018-06-01T03:53:42.414Z,997.32
2018-06-01T03:54:52.226Z,997.34
2018-06-01T03:56:02.306Z,997.36
2018-06-01T03:57:12.385Z,997.36
2018-06-01T03:58:22.468Z,997.35
2018-06-01T03:59:32.551Z,997.39
2018-06-01T04:00:42.621Z,997.35
2018-06-01T04:01:52.706Z,997.4
2018-06-01T04:03:02.546Z,997.45
2018-06-01T04:04:12.670Z,997.43
2018-06-01T04:05:22.781Z,997.48
2018-06-01T04:06:32.879Z,997.5
2018-06-01T04:07:42.954Z,997.49
2018-06-01T04:08:53.043Z,997.53
2018-06-01T04:10:02.946Z,997.57
2018-06-01T04:11:12.766Z,997.57
2018-06-01T04:12:22.867Z,997.6
2018-06-01T04:13:32.685Z,997.6
2018-06-01T04:14:42.770Z,997.6
2018-06-01T04:15:52.595Z,997.61
2018-06-01T04:17:02.431Z,997.64
2018-06-01T04:18:12.504Z,997.69
2018-06-01T04:19:22.330Z,997.84
2018-06-01T04:20:32.420Z,997.86
2018-06-01T04:21:41.964Z,997.88
2018-06-01T04:22:52.050Z,997.89
2018-06-01T04:24:02.149Z,997.88
2018-06-01T04:25:12.232Z,997.82
2018-06-01T04:26:22.315Z,997.86
2018-06-01T04:27:32.411Z,997.83
2018-06-01T04:28:42.743Z,997.86
2018-06-01T04:29:52.574Z,997.93
2018-06-01T04:31:02.149Z,997.87
2018-06-01T04:32:12.223Z,997.96
2018-06-01T04:33:22.317Z,997.98
2018-06-01T04:34:32.155Z,997.99
2018-06-01T04:35:42.237Z,997.92
2018-06-01T04:36:52.309Z,997.97
2018-06-01T04:38:02.134Z,997.98
2018-06-01T04:39:12.269Z,998.01
2018-06-01T04:40:22.349Z,997.99
2018-06-01T04:41:32.622Z,998
2018-06-01T04:42:42.704Z,998.05
2018-06-01T04:43:52.765Z,998.03
2018-06-01T04:45:02.837Z,998.02
2018-06-01T04:46:12.923Z,998.04
2018-06-01T04:47:22.472Z,998.04
2018-06-01T04:48:32.552Z,998.09
2018-06-01T04:49:42.125Z,998.08
2018-06-01T04:50:51.949Z,998.09
2018-06-01T04:52:02.032Z,998.16
2018-06-01T04:53:12.132Z,998.22
2018-06-01T04:54:22.225Z,998.24
2018-06-01T04:55:32.042Z,998.2
2018-06-01T04:56:42.127Z,998.23
2018-06-01T04:57:51.948Z,998.21
2018-06-01T04:59:02.042Z,998.21
2018-06-01T05:00:12.126Z,998.23
2018-06-01T05:01:21.959Z,998.22
2018-06-01T05:02:31.788Z,998.17
2018-06-01T05:03:41.884Z,998.17
2018-06-01T05:04:51.976Z,998.16
2018-06-01T05:06:01.816Z,998.14
2018-06-01T05:07:11.683Z,998.16
2018-06-01T05:08:21.773Z,998.12
2018-06-01T05:09:31.864Z,998.11
2018-06-01T05:10:41.967Z,998.14
2018-06-01T05:11:51.797Z,998.17
2018-06-01T05:13:01.634Z,998.17
2018-06-01T05:14:11.464Z,998.19
2018-06-01T05:15:21.550Z,998.18
2018-06-01T05:16:31.632Z,998.26
2018-06-01T05:17:42.112Z,998.31
2018-06-01T05:18:52.224Z,998.58
2018-06-01T05:20:02.059Z,998.8
2018-06-01T05:21:12.168Z,998.72
2018-06-01T05:22:22.362Z,998.67
2018-06-01T05:23:32.441Z,998.67
2018-06-01T05:24:42.529Z,998.59
2018-06-01T05:25:52.357Z,998.61
2018-06-01T05:27:02.187Z,998.63
2018-06-01T05:28:12.291Z,998.71
2018-06-01T05:29:22.375Z,998.73
2018-06-01T05:30:32.468Z,998.7
2018-06-01T05:31:42.596Z,998.7
2018-06-01T05:32:52.429Z,998.69
2018-06-01T05:34:02.535Z,998.69
2018-06-01T05:35:12.357Z,998.63
2018-06-01T05:36:22.500Z,998.68
2018-06-01T05:37:32.591Z,998.7
2018-06-01T05:38:42.674Z,998.63
2018-06-01T05:39:52.757Z,998.57
2018-06-01T05:41:02.834Z,998.58
2018-06-01T05:42:12.930Z,998.62
2018-06-01T05:43:22.750Z,998.66
2018-06-01T05:44:32.579Z,998.66
2018-06-01T05:45:42.395Z,998.61
2018-06-01T05:46:52.492Z,998.6
2018-06-01T05:48:02.585Z,998.6
2018-06-01T05:49:12.687Z,998.65
2018-06-01T05:50:22.776Z,998.63
2018-06-01T05:51:32.856Z,998.61
2018-06-01T05:52:42.420Z,998.62
2018-06-01T05:53:52.244Z,998.64
2018-06-01T05:55:02.140Z,998.7
2018-06-01T05:56:12.231Z,998.55
2018-06-01T05:57:22.073Z,998.52
2018-06-01T05:58:32.175Z,998.57
2018-06-01T05:59:42.257Z,998.58
2018-06-01T06:00:52.388Z,998.52
2018-06-01T06:02:02.218Z,998.35
2018-06-01T06:03:12.333Z,998.29
2018-06-01T06:04:22.476Z,998.34
2018-06-01T06:05:32.352Z,998.3
2018-06-01T06:06:42.178Z,998.35
2018-06-01T06:07:51.999Z,998.36
2018-06-01T06:09:02.096Z,998.38
2018-06-01T06:10:12.191Z,998.35
2018-06-01T06:11:22.317Z,998.34
2018-06-01T06:12:32.172Z,998.36
2018-06-01T06:13:42.252Z,998.35
2018-06-01T06:14:52.342Z,998.33
2018-06-01T06:16:02.160Z,998.41
2018-06-01T06:17:12.018Z,998.44
2018-06-01T06:18:22.104Z,998.41
2018-06-01T06:19:32.189Z,998.48
2018-06-01T06:20:42.276Z,998.42
2018-06-01T06:21:52.085Z,998.44
2018-06-01T06:23:02.191Z,998.46
2018-06-01T06:24:12.004Z,998.43
2018-06-01T06:25:21.841Z,998.44
2018-06-01T06:26:31.951Z,998.48
2018-06-01T06:27:42.058Z,998.48
2018-06-01T06:28:52.156Z,998.52
2018-06-01T06:30:02.028Z,998.5
2018-06-01T06:31:12.124Z,998.55
2018-06-01T06:32:22.050Z,998.53
2018-06-01T06:33:32.161Z,998.52
2018-06-01T06:34:42.245Z,998.52
2018-06-01T06:35:52.432Z,998.51
2018-06-01T06:37:02.316Z,998.53
2018-06-01T06:38:12.413Z,998.58
2018-06-01T06:39:22.258Z,998.59
2018-06-01T06:40:32.357Z,998.57
2018-06-01T06:41:42.451Z,998.61
2018-06-01T06:42:52.768Z,998.59
2018-06-01T06:44:02.904Z,998.58
2018-06-01T06:45:12.718Z,998.6
2018-06-01T06:46:22.807Z,998.6
2018-06-01T06:47:32.970Z,998.65
2018-06-01T06:48:42.808Z,998.69
2018-06-01T06:49:52.895Z,998.67
2018-06-01T06:51:02.730Z,998.69
2018-06-01T06:52:12.820Z,998.71
2018-06-01T06:53:22.408Z,998.7
2018-06-01T06:54:32.241Z,998.7
2018-06-01T06:55:42.352Z,998.7
2018-06-01T06:56:52.187Z,998.71
2018-06-01T06:58:02.024Z,998.69
2018-06-01T06:59:12.129Z,998.69
2018-06-01T07:00:22.222Z,998.71
2018-06-01T07:01:32.067Z,998.72
2018-06-01T07:02:41.931Z,998.72
2018-06-01T07:03:51.869Z,998.7
2018-06-01T07:05:01.957Z,998.68
2018-06-01T07:06:11.801Z,998.66
2018-06-01T07:07:21.638Z,998.7
2018-06-01T07:08:31.723Z,998.72
2018-06-01T07:09:41.817Z,998.71
2018-06-01T07:10:51.999Z,998.68
2018-06-01T07:12:02.157Z,998.72
2018-06-01T07:13:12.245Z,998.75
2018-06-01T07:14:22.065Z,998.73
2018-06-01T07:15:32.145Z,998.75
2018-06-01T07:16:42.302Z,998.79
2018-06-01T07:17:52.402Z,998.83
2018-06-01T07:19:02.224Z,998.82
2018-06-01T07:20:12.304Z,998.85
2018-06-01T07:21:22.560Z,998.9
2018-06-01T07:22:32.743Z,998.86
2018-06-01T07:23:42.654Z,998.83
2018-06-01T07:24:52.799Z,998.85
2018-06-01T07:26:02.892Z,998.84
2018-06-01T07:27:12.984Z,998.85
2018-06-01T07:28:23.081Z,998.82
2018-06-01T07:29:33.216Z,998.81
2018-06-01T07:30:43.304Z,998.83
2018-06-01T07:31:53.420Z,998.83
2018-06-01T07:33:03.514Z,998.81
2018-06-01T07:34:13.154Z,998.82
2018-06-01T07:35:23.249Z,998.8
2018-06-01T07:36:33.089Z,998.8
2018-06-01T07:37:42.923Z,998.82
2018-06-01T07:38:52.790Z,998.78
2018-06-01T07:40:02.933Z,998.81
2018-06-01T07:41:12.765Z,998.79
2018-06-01T07:42:22.855Z,998.83
2018-06-01T07:43:32.689Z,998.81
2018-06-01T07:44:42.513Z,998.82
2018-06-01T07:45:52.650Z,998.8
2018-06-01T07:47:02.468Z,998.81
2018-06-01T07:48:12.553Z,998.8
2018-06-01T07:49:22.656Z,998.77
2018-06-01T07:50:32.531Z,998.74
2018-06-01T07:51:42.668Z,998.75
2018-06-01T07:52:52.491Z,998.78
2018-06-01T07:54:02.312Z,998.73
2018-06-01T07:55:12.125Z,998.71
2018-06-01T07:56:21.962Z,998.73
2018-06-01T07:57:32.104Z,998.76
2018-06-01T07:58:41.923Z,998.73
2018-06-01T07:59:52.026Z,998.74
2018-06-01T08:01:01.868Z,998.79
2018-06-01T08:02:11.959Z,998.74
2018-06-01T08:03:22.031Z,998.75
2018-06-01T08:04:32.329Z,998.77
2018-06-01T08:05:42.397Z,998.79
2018-06-01T08:06:51.947Z,998.79
2018-06-01T08:08:01.514Z,998.74
2018-06-01T08:09:11.684Z,998.76
2018-06-01T08:10:21.970Z,998.7
2018-06-01T08:11:32.078Z,998.7
2018-06-01T08:12:41.903Z,998.73
2018-06-01T08:13:51.998Z,998.72
2018-06-01T08:15:01.850Z,998.74
2018-06-01T08:16:11.676Z,998.72
2018-06-01T08:17:21.787Z,998.72
2018-06-01T08:18:31.876Z,998.74
2018-06-01T08:19:41.958Z,998.76
2018-06-01T08:20:52.097Z,998.72
2018-06-01T08:22:01.684Z,998.74
2018-06-01T08:23:11.788Z,998.72
2018-06-01T08:24:21.861Z,998.7
2018-06-01T08:25:31.704Z,998.68
2018-06-01T08:26:41.785Z,998.73
2018-06-01T08:27:51.874Z,998.69
2018-06-01T08:29:01.706Z,998.72
2018-06-01T08:30:11.547Z,998.7
2018-06-01T08:31:21.358Z,998.65
2018-06-01T08:32:31.474Z,998.71
2018-06-01T08:33:41.829Z,998.66
2018-06-01T08:34:51.928Z,998.7
2018-06-01T08:36:02.001Z,998.72
2018-06-01T08:37:12.104Z,998.73
2018-06-01T08:38:22.210Z,998.71
2018-06-01T08:39:32.364Z,998.74
2018-06-01T08:40:42.531Z,998.76
2018-06-01T08:41:52.603Z,998.71
2018-06-01T08:43:02.696Z,998.75
2018-06-01T08:44:12.819Z,998.74
2018-06-01T08:45:22.906Z,998.73
2018-06-01T08:46:32.798Z,998.73
2018-06-01T08:47:43.103Z,998.72
2018-06-01T08:48:52.668Z,998.71
2018-06-01T08:50:02.757Z,998.76
2018-06-01T08:51:12.856Z,998.74
2018-06-01T08:52:22.681Z,998.75
2018-06-01T08:53:32.751Z,998.69
2018-06-01T08:54:42.595Z,998.68
2018-06-01T08:55:52.684Z,998.65
2018-06-01T08:57:02.531Z,998.64
2018-06-01T08:58:12.366Z,998.68
2018-06-01T08:59:22.480Z,998.69
2018-06-01T09:00:32.601Z,998.67
2018-06-01T09:01:42.695Z,998.71
2018-06-01T09:02:52.540Z,998.66
2018-06-01T09:04:02.644Z,998.71
2018-06-01T09:05:12.757Z,998.69
2018-06-01T09:06:22.843Z,998.68
2018-06-01T09:07:32.931Z,998.67
2018-06-01T09:08:42.764Z,998.7
2018-06-01T09:09:52.597Z,998.72
2018-06-01T09:11:02.818Z,998.74
2018-06-01T09:12:12.661Z,998.74
2018-06-01T09:13:22.496Z,998.69
2018-06-01T09:14:32.308Z,998.69
2018-06-01T09:15:42.406Z,998.71
2018-06-01T09:16:52.512Z,998.78
2018-06-01T09:18:02.651Z,998.76
2018-06-01T09:19:12.774Z,998.78
2018-06-01T09:20:22.600Z,998.79
2018-06-01T09:21:32.699Z,998.85
2018-06-01T09:22:42.809Z,998.8
2018-06-01T09:23:52.968Z,998.79
2018-06-01T09:25:02.819Z,998.77
2018-06-01T09:26:12.908Z,998.78
2018-06-01T09:27:22.999Z,998.78
2018-06-01T09:28:33.112Z,998.76
2018-06-01T09:29:42.970Z,998.76
2018-06-01T09:30:53.061Z,998.79
2018-06-01T09:32:02.901Z,998.7
2018-06-01T09:33:13.002Z,998.67
2018-06-01T09:34:22.876Z,998.7
2018-06-01T09:35:33.015Z,998.73
2018-06-01T09:36:43.137Z,998.77
2018-06-01T09:37:53.225Z,998.75
2018-06-01T09:39:03.130Z,998.78
2018-06-01T09:40:12.964Z,998.77
2018-06-01T09:41:23.051Z,998.86
2018-06-01T09:42:33.154Z,998.84
2018-06-01T09:43:43.267Z,998.96
2018-06-01T09:44:53.453Z,998.98
2018-06-01T09:46:03.571Z,998.98
2018-06-01T09:47:13.685Z,999.08
2018-06-01T09:48:23.792Z,999.18
2018-06-01T09:49:33.371Z,999.19
2018-06-01T09:50:43.491Z,999.22
2018-06-01T09:51:53.608Z,999.22
2018-06-01T09:53:03.733Z,999.26
2018-06-01T09:54:13.822Z,999.24
2018-06-01T09:55:23.684Z,999.25
2018-06-01T09:56:34.135Z,999.29
2018-06-01T09:57:43.991Z,999.24
2018-06-01T09:58:53.553Z,999.22
2018-06-01T10:00:03.644Z,999.16
2018-06-01T10:01:13.505Z,999.24
2018-06-01T10:02:23.323Z,999.16
2018-06-01T10:03:33.429Z,999.2
2018-06-01T10:04:43.546Z,999.18
2018-06-01T10:05:53.744Z,999.19
2018-06-01T10:07:03.589Z,999.19
2018-06-01T10:08:13.713Z,999.13
2018-06-01T10:09:23.014Z,999.1
2018-06-01T10:10:32.859Z,999.08
2018-06-01T10:11:42.952Z,999.04
2018-06-01T10:12:52.792Z,999.03
2018-06-01T10:14:02.660Z,999.02
2018-06-01T10:15:12.607Z,999.04
2018-06-01T10:16:22.721Z,998.95
2018-06-01T10:17:32.842Z,998.94
2018-06-01T10:18:42.417Z,998.98
2018-06-01T10:19:52.529Z,998.91
2018-06-01T10:21:02.649Z,998.92
2018-06-01T10:22:12.481Z,998.91
2018-06-01T10:23:22.579Z,998.9
2018-06-01T10:24:32.691Z,998.94
2018-06-01T10:25:42.829Z,998.95
2018-06-01T10:26:52.924Z,999.02
2018-06-01T10:28:02.497Z,999.04
2018-06-01T10:29:12.606Z,999.1
2018-06-01T10:30:22.698Z,999.13
2018-06-01T10:31:32.583Z,999.14
2018-06-01T10:32:42.685Z,999.19
2018-06-01T10:33:52.565Z,999.17
2018-06-01T10:35:02.645Z,999.18
2018-06-01T10:36:12.475Z,999.21
2018-06-01T10:37:22.376Z,999.2
2018-06-01T10:38:32.518Z,999.18
2018-06-01T10:39:42.854Z,999.17
2018-06-01T10:40:52.431Z,999.17
2018-06-01T10:42:02.545Z,999.22
2018-06-01T10:43:12.676Z,999.22
2018-06-01T10:44:22.763Z,999.17
2018-06-01T10:45:32.637Z,999.25
2018-06-01T10:46:42.734Z,999.29
2018-06-01T10:47:52.836Z,999.25
2018-06-01T10:49:02.728Z,999.26
2018-06-01T10:50:12.865Z,999.22
2018-06-01T10:51:22.977Z,999.26
2018-06-01T10:52:33.135Z,999.24
2018-06-01T10:53:43.222Z,999.25
2018-06-01T10:54:53.359Z,999.24
2018-06-01T10:56:03.200Z,999.19
2018-06-01T10:57:13.314Z,999.24
2018-06-01T10:58:23.405Z,999.23
2018-06-01T10:59:33.245Z,999.28
2018-06-01T11:00:43.384Z,999.24
2018-06-01T11:01:53.468Z,999.29
2018-06-01T11:03:03.290Z,999.24
2018-06-01T11:04:13.383Z,999.21
2018-06-01T11:05:23.485Z,999.2
2018-06-01T11:06:33.084Z,999.2
2018-06-01T11:07:43.165Z,999.17
2018-06-01T11:08:53.255Z,999.17
2018-06-01T11:10:03.151Z,999.12
2018-06-01T11:11:12.979Z,999.15
2018-06-01T11:12:22.815Z,999.15
2018-06-01T11:13:32.924Z,999.13
2018-06-01T11:14:43.099Z,999.13
2018-06-01T11:15:52.923Z,999.11
2018-06-01T11:17:03.009Z,999.13
2018-06-01T11:18:12.846Z,999.07
2018-06-01T11:19:22.927Z,999.06
2018-06-01T11:20:33.018Z,999.06
2018-06-01T11:21:43.127Z,999.03
2018-06-01T11:22:53.382Z,999.01
2018-06-01T11:24:03.258Z,999.01
2018-06-01T11:25:13.348Z,999.08
2018-06-01T11:26:23.473Z,999.06
2018-06-01T11:27:33.553Z,999.08
2018-06-01T11:28:43.437Z,999.04
2018-06-01T11:29:53.578Z,999.05
2018-06-01T11:31:03.675Z,999.02
2018-06-01T11:32:13.773Z,999.06
2018-06-01T11:33:24.051Z,999.06
2018-06-01T11:34:33.882Z,999.03
2018-06-01T11:35:43.969Z,999.07
2018-06-01T11:36:53.796Z,999.05
2018-06-01T11:38:03.726Z,999.02
2018-06-01T11:39:13.600Z,999.03
2018-06-01T11:40:23.708Z,999.04
2018-06-01T11:41:33.866Z,999.02
2018-06-01T11:42:43.681Z,999.05
2018-06-01T11:43:53.778Z,999.02
2018-06-01T11:45:03.885Z,998.99
2018-06-01T11:46:13.737Z,999.01
2018-06-01T11:47:24.163Z,998.98
2018-06-01T11:48:34.273Z,998.97
2018-06-01T11:49:44.469Z,998.98
2018-06-01T11:50:54.611Z,998.97
2018-06-01T11:52:04.748Z,998.97
2018-06-01T11:53:14.925Z,998.95
2018-06-01T11:54:25.220Z,998.9
2018-06-01T11:55:35.823Z,998.94
2018-06-01T11:56:46.048Z,998.97
2018-06-01T11:57:56.306Z,998.96
2018-06-01T11:59:06.557Z,998.93
2018-06-01T12:00:16.793Z,998.9
2018-06-01T12:01:26.945Z,998.92
2018-06-01T12:02:36.978Z,998.92
2018-06-01T12:03:47.104Z,998.89
2018-06-01T12:04:57.272Z,998.92
2018-06-01T12:06:07.485Z,998.94
2018-06-01T12:07:17.604Z,998.87
2018-06-01T12:08:27.750Z,998.91
2018-06-01T12:09:37.592Z,998.89
2018-06-01T12:10:47.953Z,998.9
2018-06-01T12:11:58.278Z,998.92
2018-06-01T12:13:08.216Z,998.92
2018-06-01T12:14:18.829Z,998.9
2018-06-01T12:15:29.003Z,998.91
2018-06-01T12:16:39.242Z,998.87
2018-06-01T12:17:49.210Z,998.89
2018-06-01T12:18:59.429Z,998.85
2018-06-01T12:20:09.621Z,998.86
2018-06-01T12:21:19.792Z,998.82
2018-06-01T12:22:29.424Z,998.81
2018-06-01T12:23:39.662Z,998.78
2018-06-01T12:24:49.562Z,998.82
2018-06-01T12:25:59.803Z,998.81
2018-06-01T12:27:09.935Z,998.84
2018-06-01T12:28:20.117Z,998.81
2018-06-01T12:29:30.576Z,998.83
2018-06-01T12:30:39.881Z,998.81
2018-06-01T12:31:49.983Z,998.81
2018-06-01T12:33:00.107Z,998.81
2018-06-01T12:34:09.949Z,998.79
2018-06-01T12:35:19.539Z,998.79
2018-06-01T12:36:29.640Z,998.68
2018-06-01T12:37:39.750Z,998.69
2018-06-01T12:38:49.840Z,998.74
2018-06-01T12:39:59.674Z,998.72
2018-06-01T12:41:09.784Z,998.76
2018-06-01T12:42:19.880Z,998.73
2018-06-01T12:43:29.965Z,998.68
2018-06-01T12:44:40.077Z,998.68
2018-06-01T12:45:50.228Z,998.69
2018-06-01T12:47:00.056Z,998.66
2018-06-01T12:48:10.187Z,998.65
2018-06-01T12:49:20.292Z,998.66
2018-06-01T12:50:30.408Z,998.63
2018-06-01T12:51:40.247Z,998.61
2018-06-01T12:52:50.373Z,998.66
2018-06-01T12:54:00.549Z,998.67
2018-06-01T12:55:10.985Z,998.67
2018-06-01T12:56:20.832Z,998.67
2018-06-01T12:57:30.997Z,998.7
2018-06-01T12:58:41.103Z,998.66
2018-06-01T12:59:51.210Z,998.66
2018-06-01T13:01:01.336Z,998.7
2018-06-01T13:02:11.164Z,998.7
2018-06-01T13:03:21.009Z,998.73
2018-06-01T13:04:31.345Z,998.72
2018-06-01T13:05:41.454Z,998.77
2018-06-01T13:06:51.560Z,998.74
2018-06-01T13:08:01.655Z,998.74
2018-06-01T13:09:12.562Z,998.79
2018-06-01T13:10:22.653Z,998.77
2018-06-01T13:11:32.772Z,998.78
2018-06-01T13:12:42.860Z,998.77
2018-06-01T13:13:52.963Z,998.78
2018-06-01T13:15:03.074Z,998.76
2018-06-01T13:16:12.942Z,998.8
2018-06-01T13:17:23.069Z,998.78
2018-06-01T13:18:33.550Z,998.83
2018-06-01T13:19:43.635Z,998.81
2018-06-01T13:20:53.729Z,998.83
2018-06-01T13:22:04.035Z,998.86
2018-06-01T13:23:14.569Z,998.83
2018-06-01T13:24:24.836Z,998.85
2018-06-01T13:25:35.362Z,998.86
2018-06-01T13:26:45.665Z,998.87
2018-06-01T13:27:56.242Z,998.89
2018-06-01T13:29:06.655Z,998.86
2018-06-01T13:30:17.358Z,998.83
2018-06-01T13:31:28.200Z,998.82
2018-06-01T13:32:38.986Z,998.84
2018-06-01T13:33:50.108Z,998.84
2018-06-01T13:35:01.115Z,998.8
2018-06-01T13:36:12.431Z,998.84
2018-06-01T13:37:23.359Z,998.74
2018-06-01T13:38:35.271Z,998.8
2018-06-01T13:39:48.224Z,998.69
2018-06-01T13:41:00.691Z,998.7
2018-06-01T13:42:11.392Z,998.68
2018-06-01T13:43:22.721Z,998.63
2018-06-01T13:44:34.661Z,998.68
2018-06-01T13:45:46.610Z,998.59
2018-06-01T13:46:59.226Z,998.57
2018-06-01T13:48:09.591Z,998.55
2018-06-01T13:49:22.114Z,998.53
2018-06-01T13:50:32.401Z,998.48
2018-06-01T13:51:42.418Z,998.42
2018-06-01T13:52:53.510Z,998.45
2018-06-01T13:54:03.768Z,998.44
2018-06-01T13:55:14.489Z,998.4
2018-06-01T13:56:25.248Z,998.33
2018-06-01T13:57:37.464Z,998.36
2018-06-01T13:58:47.909Z,998.32
2018-06-01T13:59:59.041Z,998.36
2018-06-01T14:01:10.167Z,998.31
2018-06-01T14:02:21.244Z,998.32
2018-06-01T14:03:33.544Z,998.29
2018-06-01T14:04:45.138Z,998.26
2018-06-01T14:05:56.407Z,998.29
2018-06-01T14:07:08.650Z,998.3
2018-06-01T14:08:23.378Z,998.26
2018-06-01T14:09:34.629Z,998.24
2018-06-01T14:10:46.945Z,998.25
2018-06-01T14:11:58.555Z,998.23
2018-06-01T14:13:10.195Z,998.21
2018-06-01T14:14:20.728Z,998.21
2018-06-01T14:15:31.854Z,998.17
2018-06-01T14:16:43.665Z,998.16
2018-06-01T14:17:54.435Z,998.17
2018-06-01T14:19:05.364Z,998.14
2018-06-01T14:20:16.559Z,998.09
2018-06-01T14:21:27.224Z,998.01
2018-06-01T14:22:38.207Z,998.03
2018-06-01T14:23:48.321Z,998
2018-06-01T14:24:58.430Z,997.98
2018-06-01T14:26:08.531Z,997.95
2018-06-01T14:27:18.649Z,997.95
2018-06-01T14:28:28.467Z,997.94
2018-06-01T14:29:38.582Z,997.92
2018-06-01T14:30:48.431Z,997.9
2018-06-01T14:31:58.277Z,997.89
2018-06-01T14:33:07.887Z,997.93
2018-06-01T14:34:17.998Z,997.95
2018-06-01T14:35:28.161Z,997.91
2018-06-01T14:36:38.330Z,997.95
2018-06-01T14:37:48.488Z,997.86
2018-06-01T14:38:58.591Z,997.87
2018-06-01T14:40:08.422Z,997.85
2018-06-01T14:41:18.808Z,997.89
2018-06-01T14:42:28.957Z,997.87
2018-06-01T14:43:39.045Z,997.87
2018-06-01T14:44:49.148Z,997.89
2018-06-01T14:45:59.269Z,997.88
2018-06-01T14:47:09.228Z,997.87
2018-06-01T14:48:19.667Z,997.87
2018-06-01T14:49:29.510Z,997.87
2018-06-01T14:50:39.626Z,997.82
2018-06-01T14:51:49.749Z,997.83
2018-06-01T14:52:59.867Z,997.82
2018-06-01T14:54:09.695Z,997.79
2018-06-01T14:55:19.546Z,997.82
2018-06-01T14:56:29.666Z,997.84
2018-06-01T14:57:39.763Z,997.83
2018-06-01T14:58:49.879Z,997.91
2018-06-01T15:00:00.038Z,997.89
2018-06-01T15:01:09.869Z,997.91
2018-06-01T15:02:19.979Z,997.92
2018-06-01T15:03:30.102Z,997.93
2018-06-01T15:04:39.926Z,997.93
2018-06-01T15:05:50.020Z,997.93
2018-06-01T15:07:00.131Z,997.97
2018-06-01T15:08:10.299Z,997.98
2018-06-01T15:09:20.074Z,998.02